sensor_id;sensor_type;location;lat;lon;timestamp;temperature;humidity
13375;DHT22;6756;51.354;15.754;2023-04-25T00:01:57;7.60;1.00
13375;DHT22;6756;51.354;15.754;2023-04-25T00:06:24;7.50;3.40
13375;DHT22;6756;51.354;15.754;2023-04-25T00:10:49;7.50;5.50
13375;DHT22;6756;51.354;15.754;2023-04-25T00:15:23;7.50;12.40
13375;DHT22;6756;51.354;15.754;2023-04-25T00:19:32;7.50;12.70
13375;DHT22;6756;51.354;15.754;2023-04-25T00:23:56;7.40;21.70
13375;DHT22;6756;51.354;15.754;2023-04-25T00:28:16;7.30;31.00
13375;DHT22;6756;51.354;15.754;2023-04-25T00:41:59;7.10;92.10
13375;DHT22;6756;51.354;15.754;2023-04-25T00:46:18;7.00;99.90
13375;DHT22;6756;51.354;15.754;2023-04-25T00:50:35;7.00;99.90
13375;DHT22;6756;51.354;15.754;2023-04-25T00:55:22;7.00;99.90
13375;DHT22;6756;51.354;15.754;2023-04-25T01:04:33;6.80;99.90
13375;DHT22;6756;51.354;15.754;2023-04-25T01:08:43;6.70;99.90
13375;DHT22;6756;51.354;15.754;2023-04-25T01:13:00;6.70;99.90
13375;DHT22;6756;51.354;15.754;2023-04-25T01:17:49;6.60;99.90
13375;DHT22;6756;51.354;15.754;2023-04-25T01:23:13;6.50;99.90
13375;DHT22;6756;51.354;15.754;2023-04-25T01:32:26;6.40;99.90
13375;DHT22;6756;51.354;15.754;2023-04-25T01:41:33;6.30;99.90
13375;DHT22;6756;51.354;15.754;2023-04-25T01:51:03;6.30;99.90
13375;DHT22;6756;51.354;15.754;2023-04-25T01:55:17;6.30;99.90
13375;DHT22;6756;51.354;15.754;2023-04-25T01:59:19;6.20;99.90
13375;DHT22;6756;51.354;15.754;2023-04-25T02:03:40;6.20;99.90
13375;DHT22;6756;51.354;15.754;2023-04-25T02:08:02;6.20;99.90
13375;DHT22;6756;51.354;15.754;2023-04-25T02:12:23;6.10;99.90
13375;DHT22;6756;51.354;15.754;2023-04-25T02:17:05;6.10;99.90
13375;DHT22;6756;51.354;15.754;2023-04-25T02:25:38;5.90;99.90
13375;DHT22;6756;51.354;15.754;2023-04-25T02:30:06;5.90;99.90
13375;DHT22;6756;51.354;15.754;2023-04-25T02:34:08;5.90;99.90
13375;DHT22;6756;51.354;15.754;2023-04-25T02:38:35;5.80;99.90
13375;DHT22;6756;51.354;15.754;2023-04-25T02:42:36;5.70;99.90
13375;DHT22;6756;51.354;15.754;2023-04-25T02:47:16;5.60;1.00
13375;DHT22;6756;51.354;15.754;2023-04-25T03:01:44;5.30;1.00
13375;DHT22;6756;51.354;15.754;2023-04-25T03:06:05;5.20;1.00
13375;DHT22;6756;51.354;15.754;2023-04-25T03:15:11;5.10;1.00
13375;DHT22;6756;51.354;15.754;2023-04-25T03:19:24;5.10;1.00
13375;DHT22;6756;51.354;15.754;2023-04-25T03:23:25;5.00;1.00
13375;DHT22;6756;51.354;15.754;2023-04-25T03:27:51;4.90;1.00
13375;DHT22;6756;51.354;15.754;2023-04-25T03:37:24;4.80;53.30
13375;DHT22;6756;51.354;15.754;2023-04-25T03:46:50;4.70;99.90
13375;DHT22;6756;51.354;15.754;2023-04-25T03:55:58;4.70;99.90
13375;DHT22;6756;51.354;15.754;2023-04-25T04:00:14;4.70;99.90
13375;DHT22;6756;51.354;15.754;2023-04-25T04:09:49;4.70;99.90
13375;DHT22;6756;51.354;15.754;2023-04-25T04:27:41;5.30;1.00
13375;DHT22;6756;51.354;15.754;2023-04-25T04:32:08;5.50;1.00
13375;DHT22;6756;51.354;15.754;2023-04-25T04:36:17;5.70;99.90
13375;DHT22;6756;51.354;15.754;2023-04-25T04:45:42;6.00;99.90
13375;DHT22;6756;51.354;15.754;2023-04-25T04:54:41;6.30;99.90
13375;DHT22;6756;51.354;15.754;2023-04-25T05:19:05;6.90;99.90
13375;DHT22;6756;51.354;15.754;2023-04-25T05:23:30;7.20;99.90
13375;DHT22;6756;51.354;15.754;2023-04-25T05:32:36;7.90;99.90
13375;DHT22;6756;51.354;15.754;2023-04-25T05:37:35;8.10;76.80
13375;DHT22;6756;51.354;15.754;2023-04-25T05:41:51;8.20;53.10
13375;DHT22;6756;51.354;15.754;2023-04-25T05:51:29;8.60;30.60
13375;DHT22;6756;51.354;15.754;2023-04-25T05:55:45;8.80;17.90
13375;DHT22;6756;51.354;15.754;2023-04-25T06:05:47;9.20;1.00
13375;DHT22;6756;51.354;15.754;2023-04-25T06:10:29;9.40;1.00
13375;DHT22;6756;51.354;15.754;2023-04-25T06:14:52;9.30;1.00
13375;DHT22;6756;51.354;15.754;2023-04-25T06:18:59;9.50;1.00
13375;DHT22;6756;51.354;15.754;2023-04-25T06:23:09;10.00;1.00
13375;DHT22;6756;51.354;15.754;2023-04-25T06:27:31;10.60;1.00
13375;DHT22;6756;51.354;15.754;2023-04-25T06:32:09;10.80;1.00
13375;DHT22;6756;51.354;15.754;2023-04-25T06:36:58;10.30;1.00
13375;DHT22;6756;51.354;15.754;2023-04-25T06:41:41;10.20;1.00
13375;DHT22;6756;51.354;15.754;2023-04-25T06:51:40;9.70;1.00
13375;DHT22;6756;51.354;15.754;2023-04-25T07:01:07;9.70;1.00
13375;DHT22;6756;51.354;15.754;2023-04-25T07:05:37;9.50;1.00
13375;DHT22;6756;51.354;15.754;2023-04-25T07:50:43;11.10;1.00
13375;DHT22;6756;51.354;15.754;2023-04-25T07:55:02;10.70;1.00
13375;DHT22;6756;51.354;15.754;2023-04-25T08:03:38;10.90;1.00
13375;DHT22;6756;51.354;15.754;2023-04-25T08:08:12;10.90;1.00
13375;DHT22;6756;51.354;15.754;2023-04-25T08:12:26;10.90;1.00
13375;DHT22;6756;51.354;15.754;2023-04-25T08:16:50;10.80;1.00
13375;DHT22;6756;51.354;15.754;2023-04-25T08:21:32;10.90;1.00
13375;DHT22;6756;51.354;15.754;2023-04-25T08:31:06;11.60;1.00
13375;DHT22;6756;51.354;15.754;2023-04-25T08:36:07;12.10;1.00
13375;DHT22;6756;51.354;15.754;2023-04-25T08:40:49;12.60;1.00
13375;DHT22;6756;51.354;15.754;2023-04-25T08:45:26;12.10;1.00
13375;DHT22;6756;51.354;15.754;2023-04-25T09:00:17;11.10;1.00
13375;DHT22;6756;51.354;15.754;2023-04-25T09:04:48;11.10;1.00
13375;DHT22;6756;51.354;15.754;2023-04-25T09:09:59;12.00;1.00
13375;DHT22;6756;51.354;15.754;2023-04-25T09:14:35;12.30;1.00
13375;DHT22;6756;51.354;15.754;2023-04-25T09:18:42;11.70;1.00
13375;DHT22;6756;51.354;15.754;2023-04-25T09:28:05;11.60;1.00
13375;DHT22;6756;51.354;15.754;2023-04-25T09:46:54;12.70;1.00
13375;DHT22;6756;51.354;15.754;2023-04-25T09:51:16;12.20;1.00
13375;DHT22;6756;51.354;15.754;2023-04-25T09:55:43;12.90;1.00
13375;DHT22;6756;51.354;15.754;2023-04-25T10:00:06;12.80;1.00
13375;DHT22;6756;51.354;15.754;2023-04-25T10:04:20;11.70;1.00
13375;DHT22;6756;51.354;15.754;2023-04-25T10:08:52;11.80;1.00
13375;DHT22;6756;51.354;15.754;2023-04-25T10:13:17;11.80;1.00
13375;DHT22;6756;51.354;15.754;2023-04-25T10:22:23;12.00;1.00
13375;DHT22;6756;51.354;15.754;2023-04-25T10:26:39;12.40;1.00
13375;DHT22;6756;51.354;15.754;2023-04-25T10:31:02;12.40;1.00
13375;DHT22;6756;51.354;15.754;2023-04-25T10:40:15;12.00;1.00
13375;DHT22;6756;51.354;15.754;2023-04-25T10:44:41;12.00;1.00
13375;DHT22;6756;51.354;15.754;2023-04-25T10:49:07;12.20;1.00
13375;DHT22;6756;51.354;15.754;2023-04-25T10:53:37;12.50;1.00
13375;DHT22;6756;51.354;15.754;2023-04-25T10:57:45;12.30;1.00
13375;DHT22;6756;51.354;15.754;2023-04-25T11:02:21;11.80;1.00
13375;DHT22;6756;51.354;15.754;2023-04-25T11:11:16;12.50;1.00
13375;DHT22;6756;51.354;15.754;2023-04-25T11:20:18;12.30;1.00
13375;DHT22;6756;51.354;15.754;2023-04-25T11:24:56;12.60;1.00
13375;DHT22;6756;51.354;15.754;2023-04-25T11:29:21;12.40;1.00
13375;DHT22;6756;51.354;15.754;2023-04-25T11:38:21;12.30;1.00
13375;DHT22;6756;51.354;15.754;2023-04-25T11:47:17;12.20;1.00
13375;DHT22;6756;51.354;15.754;2023-04-25T11:56:30;13.10;1.00
13375;DHT22;6756;51.354;15.754;2023-04-25T12:00:31;13.60;1.00
13375;DHT22;6756;51.354;15.754;2023-04-25T12:04:44;13.50;1.00
13375;DHT22;6756;51.354;15.754;2023-04-25T12:09:08;12.90;1.00
13375;DHT22;6756;51.354;15.754;2023-04-25T12:13:46;12.80;1.00
13375;DHT22;6756;51.354;15.754;2023-04-25T12:18:04;12.80;1.00
13375;DHT22;6756;51.354;15.754;2023-04-25T12:22:26;12.50;1.00
13375;DHT22;6756;51.354;15.754;2023-04-25T12:31:24;12.50;1.00
13375;DHT22;6756;51.354;15.754;2023-04-25T12:35:55;12.60;1.00
13375;DHT22;6756;51.354;15.754;2023-04-25T12:40:21;12.30;1.00
13375;DHT22;6756;51.354;15.754;2023-04-25T12:44:27;12.00;1.00
13375;DHT22;6756;51.354;15.754;2023-04-25T12:48:35;12.10;1.00
13375;DHT22;6756;51.354;15.754;2023-04-25T12:52:39;12.00;1.00
13375;DHT22;6756;51.354;15.754;2023-04-25T12:57:16;11.80;1.00
13375;DHT22;6756;51.354;15.754;2023-04-25T13:01:51;11.60;1.00
13375;DHT22;6756;51.354;15.754;2023-04-25T13:06:27;11.50;1.00
13375;DHT22;6756;51.354;15.754;2023-04-25T13:21:05;10.30;1.00
13375;DHT22;6756;51.354;15.754;2023-04-25T13:25:50;10.20;1.00
13375;DHT22;6756;51.354;15.754;2023-04-25T13:30:08;10.60;1.00
13375;DHT22;6756;51.354;15.754;2023-04-25T13:39:25;11.30;1.00
13375;DHT22;6756;51.354;15.754;2023-04-25T13:48:15;11.10;1.00
13375;DHT22;6756;51.354;15.754;2023-04-25T13:52:26;10.70;1.00
13375;DHT22;6756;51.354;15.754;2023-04-25T14:06:56;10.20;1.00
13375;DHT22;6756;51.354;15.754;2023-04-25T14:21:32;10.10;1.00
13375;DHT22;6756;51.354;15.754;2023-04-25T14:35:30;8.50;14.30
13375;DHT22;6756;51.354;15.754;2023-04-25T14:49:37;8.10;99.90
13375;DHT22;6756;51.354;15.754;2023-04-25T14:53:50;8.30;99.90
13375;DHT22;6756;51.354;15.754;2023-04-25T14:58:20;8.60;99.90
13375;DHT22;6756;51.354;15.754;2023-04-25T15:11:42;8.40;99.90
13375;DHT22;6756;51.354;15.754;2023-04-25T15:16:05;8.50;99.90
13375;DHT22;6756;51.354;15.754;2023-04-25T15:25:12;8.60;99.90
13375;DHT22;6756;51.354;15.754;2023-04-25T15:29:14;8.80;99.90
13375;DHT22;6756;51.354;15.754;2023-04-25T15:38:04;8.60;99.90
13375;DHT22;6756;51.354;15.754;2023-04-25T15:42:26;8.80;99.90
13375;DHT22;6756;51.354;15.754;2023-04-25T15:46:43;9.00;40.20
13375;DHT22;6756;51.354;15.754;2023-04-25T15:51:26;9.30;29.60
13375;DHT22;6756;51.354;15.754;2023-04-25T16:00:15;9.90;1.00
13375;DHT22;6756;51.354;15.754;2023-04-25T16:04:49;10.10;1.00
13375;DHT22;6756;51.354;15.754;2023-04-25T16:09:36;10.00;1.00
13375;DHT22;6756;51.354;15.754;2023-04-25T16:13:40;10.30;1.00
13375;DHT22;6756;51.354;15.754;2023-04-25T16:22:35;10.30;1.00
13375;DHT22;6756;51.354;15.754;2023-04-25T16:26:39;10.10;1.00
13375;DHT22;6756;51.354;15.754;2023-04-25T16:31:25;10.30;1.00
13375;DHT22;6756;51.354;15.754;2023-04-25T16:35:44;10.30;1.00
13375;DHT22;6756;51.354;15.754;2023-04-25T16:40:13;10.20;1.00
13375;DHT22;6756;51.354;15.754;2023-04-25T16:44:27;9.70;1.00
13375;DHT22;6756;51.354;15.754;2023-04-25T16:58:32;9.10;1.00
13375;DHT22;6756;51.354;15.754;2023-04-25T17:21:30;8.90;1.00
13375;DHT22;6756;51.354;15.754;2023-04-25T17:25:57;8.80;1.00
13375;DHT22;6756;51.354;15.754;2023-04-25T17:35:53;8.60;1.00
13375;DHT22;6756;51.354;15.754;2023-04-25T17:39:58;8.50;1.00
13375;DHT22;6756;51.354;15.754;2023-04-25T17:44:23;8.40;1.00
13375;DHT22;6756;51.354;15.754;2023-04-25T17:48:56;8.50;1.00
13375;DHT22;6756;51.354;15.754;2023-04-25T17:53:15;8.50;1.00
13375;DHT22;6756;51.354;15.754;2023-04-25T17:57:52;8.40;1.00
13375;DHT22;6756;51.354;15.754;2023-04-25T18:01:59;8.30;1.00
13375;DHT22;6756;51.354;15.754;2023-04-25T18:06:30;8.20;1.00
13375;DHT22;6756;51.354;15.754;2023-04-25T18:10:39;8.10;1.00
13375;DHT22;6756;51.354;15.754;2023-04-25T18:14:55;8.00;1.00
13375;DHT22;6756;51.354;15.754;2023-04-25T18:19:54;7.80;1.00
13375;DHT22;6756;51.354;15.754;2023-04-25T18:24:17;7.50;1.00
13375;DHT22;6756;51.354;15.754;2023-04-25T18:33:47;7.00;1.00
13375;DHT22;6756;51.354;15.754;2023-04-25T18:38:23;6.60;1.00
13375;DHT22;6756;51.354;15.754;2023-04-25T18:42:35;6.30;1.00
13375;DHT22;6756;51.354;15.754;2023-04-25T18:47:51;6.00;1.00
13375;DHT22;6756;51.354;15.754;2023-04-25T18:52:53;5.80;1.00
13375;DHT22;6756;51.354;15.754;2023-04-25T18:57:03;5.50;1.00
13375;DHT22;6756;51.354;15.754;2023-04-25T19:06:35;5.10;1.00
13375;DHT22;6756;51.354;15.754;2023-04-25T19:11:23;4.80;1.00
13375;DHT22;6756;51.354;15.754;2023-04-25T19:15:49;4.70;1.00
13375;DHT22;6756;51.354;15.754;2023-04-25T19:25:15;4.70;1.00
13375;DHT22;6756;51.354;15.754;2023-04-25T19:29:36;4.60;1.00
13375;DHT22;6756;51.354;15.754;2023-04-25T19:33:55;4.60;1.00
13375;DHT22;6756;51.354;15.754;2023-04-25T19:38:12;4.60;1.00
13375;DHT22;6756;51.354;15.754;2023-04-25T19:42:27;4.40;1.00
13375;DHT22;6756;51.354;15.754;2023-04-25T19:46:42;4.20;1.00
13375;DHT22;6756;51.354;15.754;2023-04-25T19:50:48;4.20;1.00
13375;DHT22;6756;51.354;15.754;2023-04-25T20:00:05;3.90;1.00
13375;DHT22;6756;51.354;15.754;2023-04-25T20:04:33;3.90;16.90
13375;DHT22;6756;51.354;15.754;2023-04-25T20:08:47;3.80;23.80
13375;DHT22;6756;51.354;15.754;2023-04-25T20:12:49;3.70;37.70
13375;DHT22;6756;51.354;15.754;2023-04-25T20:17:25;3.60;89.20
13375;DHT22;6756;51.354;15.754;2023-04-25T20:21:49;3.70;82.40
13375;DHT22;6756;51.354;15.754;2023-04-25T20:26:18;3.70;59.20
13375;DHT22;6756;51.354;15.754;2023-04-25T20:30:40;3.80;39.30
13375;DHT22;6756;51.354;15.754;2023-04-25T20:39:28;4.00;4.90
13375;DHT22;6756;51.354;15.754;2023-04-25T20:43:42;4.10;1.00
13375;DHT22;6756;51.354;15.754;2023-04-25T20:48:06;4.20;1.00
13375;DHT22;6756;51.354;15.754;2023-04-25T20:52:13;4.20;1.00
13375;DHT22;6756;51.354;15.754;2023-04-25T20:56:19;4.30;1.00
13375;DHT22;6756;51.354;15.754;2023-04-25T21:00:34;4.40;1.00
13375;DHT22;6756;51.354;15.754;2023-04-25T21:04:47;4.50;1.00
13375;DHT22;6756;51.354;15.754;2023-04-25T21:08:54;4.50;1.00
13375;DHT22;6756;51.354;15.754;2023-04-25T21:13:17;4.50;1.00
13375;DHT22;6756;51.354;15.754;2023-04-25T21:17:44;4.50;1.00
13375;DHT22;6756;51.354;15.754;2023-04-25T21:22:14;4.50;1.00
13375;DHT22;6756;51.354;15.754;2023-04-25T21:26:35;4.40;1.00
13375;DHT22;6756;51.354;15.754;2023-04-25T21:30:49;4.40;1.00
13375;DHT22;6756;51.354;15.754;2023-04-25T21:34:55;4.40;1.00
13375;DHT22;6756;51.354;15.754;2023-04-25T21:43:55;4.40;1.00
13375;DHT22;6756;51.354;15.754;2023-04-25T21:48:41;4.40;1.00
13375;DHT22;6756;51.354;15.754;2023-04-25T21:52:52;4.40;1.00
13375;DHT22;6756;51.354;15.754;2023-04-25T21:57:01;4.40;1.00
13375;DHT22;6756;51.354;15.754;2023-04-25T22:01:17;4.30;1.00
13375;DHT22;6756;51.354;15.754;2023-04-25T22:05:22;4.20;1.00
13375;DHT22;6756;51.354;15.754;2023-04-25T22:10:00;4.10;1.00
13375;DHT22;6756;51.354;15.754;2023-04-25T22:14:12;3.90;1.00
13375;DHT22;6756;51.354;15.754;2023-04-25T22:18:20;3.80;1.00
13375;DHT22;6756;51.354;15.754;2023-04-25T22:22:27;3.80;1.00
13375;DHT22;6756;51.354;15.754;2023-04-25T22:26:37;3.70;1.00
13375;DHT22;6756;51.354;15.754;2023-04-25T22:30:41;3.50;1.00
13375;DHT22;6756;51.354;15.754;2023-04-25T22:34:51;3.40;5.50
13375;DHT22;6756;51.354;15.754;2023-04-25T22:39:08;3.40;13.10
13375;DHT22;6756;51.354;15.754;2023-04-25T22:43:19;3.30;28.80
13375;DHT22;6756;51.354;15.754;2023-04-25T22:47:45;3.20;38.60
13375;DHT22;6756;51.354;15.754;2023-04-25T22:51:47;3.30;37.50
13375;DHT22;6756;51.354;15.754;2023-04-25T22:55:57;3.20;42.90
13375;DHT22;6756;51.354;15.754;2023-04-25T23:00:21;3.00;52.10
13375;DHT22;6756;51.354;15.754;2023-04-25T23:04:31;2.90;68.10
13375;DHT22;6756;51.354;15.754;2023-04-25T23:08:43;2.70;99.90
13375;DHT22;6756;51.354;15.754;2023-04-25T23:12:59;2.60;99.90
13375;DHT22;6756;51.354;15.754;2023-04-25T23:17:20;2.50;99.90
13375;DHT22;6756;51.354;15.754;2023-04-25T23:21:32;2.40;99.90
13375;DHT22;6756;51.354;15.754;2023-04-25T23:25:55;2.20;99.90
13375;DHT22;6756;51.354;15.754;2023-04-25T23:34:33;2.20;99.90
13375;DHT22;6756;51.354;15.754;2023-04-25T23:38:34;2.20;99.90
13375;DHT22;6756;51.354;15.754;2023-04-25T23:42:48;2.20;99.90
13375;DHT22;6756;51.354;15.754;2023-04-25T23:47:16;2.20;99.90
13375;DHT22;6756;51.354;15.754;2023-04-25T23:51:20;2.20;99.90
13375;DHT22;6756;51.354;15.754;2023-04-25T23:55:31;2.20;99.90
13375;DHT22;6756;51.354;15.754;2023-04-25T23:59:57;2.20;99.90
